N229JC KOZW-KPGD
Flight info
| Callsign | N229JC |
|---|---|
| Flight time | N/A |
| Altitude | 43000 |
| Route | CLVIN3 STAZE PLYER PIKKR7 |
| Aircraft | C750/M-SBDE3FGHRWXY/S |
Departure
| Time | 2026-04-24 14:51 |
|---|---|
| Airport | Livingston County Spencer J. Hardy Airport (KOZW) |
Arrival
| Time | N/A |
|---|---|
| Airport | Punta Gorda Airport (KPGD) |
| Time | Latitude | Longitude | Altitude | Speed | Heading |
|---|---|---|---|---|---|
| 2026-04-24 14:42 | 42.63056 | -83.97884 | 956 ft | 0 kts | 303° |
| 2026-04-24 14:46 | 42.63059 | -83.97897 | 955 ft | 1 kts | 270° |
| 2026-04-24 14:47 | 42.63049 | -83.97917 | 956 ft | 5 kts | 225° |
| 2026-04-24 14:47 | 42.63010 | -83.97934 | 954 ft | 9 kts | 185° |
| 2026-04-24 14:47 | 42.62949 | -83.97935 | 956 ft | 8 kts | 181° |
| 2026-04-24 14:47 | 42.62902 | -83.97962 | 955 ft | 6 kts | 222° |
| 2026-04-24 14:48 | 42.62855 | -83.98031 | 955 ft | 10 kts | 253° |
| 2026-04-24 14:48 | 42.62901 | -83.98141 | 955 ft | 22 kts | 308° |
| 2026-04-24 14:48 | 42.62992 | -83.98306 | 959 ft | 20 kts | 306° |
| 2026-04-24 14:48 | 42.63074 | -83.98453 | 959 ft | 19 kts | 308° |
| 2026-04-24 14:49 | 42.63158 | -83.98597 | 962 ft | 23 kts | 307° |
| 2026-04-24 14:49 | 42.63255 | -83.98768 | 963 ft | 22 kts | 308° |
| 2026-04-24 14:49 | 42.63328 | -83.98911 | 963 ft | 11 kts | 295° |
| 2026-04-24 14:49 | 42.63346 | -83.98928 | 963 ft | 1 kts | 30° |
| 2026-04-24 14:50 | 42.63335 | -83.98907 | 964 ft | 6 kts | 141° |
| 2026-04-24 14:50 | 42.63310 | -83.98874 | 963 ft | 0 kts | 124° |
| 2026-04-24 14:50 | 42.63170 | -83.98620 | 962 ft | 89 kts | 128° |
| 2026-04-24 14:50 | 42.62617 | -83.97650 | 1102 ft | 147 kts | 128° |
| 2026-04-24 14:51 | 42.61955 | -83.96504 | 1627 ft | 164 kts | 128° |
| 2026-04-24 14:51 | 42.61224 | -83.95152 | 2078 ft | 189 kts | 124° |
| 2026-04-24 14:51 | 42.60506 | -83.93652 | 2937 ft | 188 kts | 123° |
| 2026-04-24 14:51 | 42.59816 | -83.92193 | 3610 ft | 174 kts | 123° |
| 2026-04-24 14:52 | 42.59165 | -83.90826 | 3476 ft | 188 kts | 123° |
| 2026-04-24 14:52 | 42.58394 | -83.89201 | 3621 ft | 219 kts | 123° |
| 2026-04-24 14:52 | 42.57426 | -83.87635 | 3558 ft | 220 kts | 146° |
| 2026-04-24 14:52 | 42.55957 | -83.87076 | 3746 ft | 226 kts | 175° |
| 2026-04-24 14:53 | 42.54451 | -83.86840 | 4887 ft | 216 kts | 169° |
| 2026-04-24 14:53 | 42.53010 | -83.86174 | 5813 ft | 221 kts | 157° |
| 2026-04-24 14:53 | 42.51607 | -83.85296 | 6783 ft | 224 kts | 156° |
| 2026-04-24 14:53 | 42.50163 | -83.84455 | 7781 ft | 227 kts | 158° |
| 2026-04-24 14:54 | 42.48681 | -83.83661 | 8819 ft | 231 kts | 159° |
| 2026-04-24 14:54 | 42.47201 | -83.82867 | 9699 ft | 236 kts | 159° |
| 2026-04-24 14:54 | 42.45650 | -83.82013 | 10008 ft | 246 kts | 158° |
| 2026-04-24 14:54 | 42.44006 | -83.81099 | 9999 ft | 272 kts | 158° |
| 2026-04-24 14:55 | 42.42794 | -83.80424 | 10015 ft | 296 kts | 158° |
| 2026-04-24 14:55 | 42.40271 | -83.79024 | 10015 ft | 322 kts | 158° |
| 2026-04-24 14:55 | 42.38252 | -83.77908 | 10048 ft | 342 kts | 158° |
| 2026-04-24 14:55 | 42.36009 | -83.76676 | 10701 ft | 348 kts | 158° |
| 2026-04-24 14:56 | 42.33759 | -83.75443 | 11550 ft | 351 kts | 158° |
| 2026-04-24 14:56 | 42.31510 | -83.74210 | 12278 ft | 356 kts | 158° |
| 2026-04-24 14:56 | 42.29202 | -83.72940 | 13019 ft | 360 kts | 158° |
| 2026-04-24 14:56 | 42.26873 | -83.71658 | 13737 ft | 364 kts | 158° |
| 2026-04-24 14:57 | 42.24513 | -83.70361 | 14429 ft | 368 kts | 158° |
| 2026-04-24 14:57 | 42.22128 | -83.69054 | 15108 ft | 372 kts | 158° |
| 2026-04-24 14:57 | 42.19722 | -83.67736 | 15784 ft | 375 kts | 158° |
| 2026-04-24 14:57 | 42.17313 | -83.66417 | 16457 ft | 379 kts | 158° |
| 2026-04-24 14:58 | 42.14834 | -83.65058 | 17152 ft | 383 kts | 158° |
| 2026-04-24 14:58 | 42.12386 | -83.63718 | 17829 ft | 387 kts | 158° |
| 2026-04-24 14:58 | 42.09882 | -83.62350 | 18521 ft | 391 kts | 158° |
| 2026-04-24 14:58 | 42.07347 | -83.60967 | 19216 ft | 395 kts | 158° |
| 2026-04-24 14:59 | 42.04790 | -83.59573 | 19911 ft | 399 kts | 158° |
| 2026-04-24 14:59 | 42.02206 | -83.58163 | 20605 ft | 403 kts | 158° |
| 2026-04-24 14:59 | 41.99596 | -83.56741 | 21271 ft | 407 kts | 158° |
| 2026-04-24 14:59 | 41.96959 | -83.55306 | 21922 ft | 411 kts | 158° |
| 2026-04-24 15:00 | 41.94293 | -83.53858 | 22557 ft | 415 kts | 158° |
| 2026-04-24 15:00 | 41.91602 | -83.52397 | 23174 ft | 419 kts | 158° |
| 2026-04-24 15:00 | 41.88921 | -83.50942 | 23776 ft | 423 kts | 158° |
| 2026-04-24 15:00 | 41.86180 | -83.49455 | 24366 ft | 427 kts | 158° |
| 2026-04-24 15:01 | 41.83413 | -83.47955 | 24945 ft | 431 kts | 158° |
| 2026-04-24 15:01 | 41.80621 | -83.46445 | 25506 ft | 434 kts | 158° |
| 2026-04-24 15:01 | 41.77807 | -83.44925 | 26051 ft | 438 kts | 158° |
| 2026-04-24 15:01 | 41.74944 | -83.43477 | 26533 ft | 442 kts | 163° |
| 2026-04-24 15:02 | 41.71903 | -83.42747 | 27043 ft | 445 kts | 175° |
| 2026-04-24 15:02 | 41.68845 | -83.42760 | 27577 ft | 448 kts | 185° |
| 2026-04-24 15:02 | 41.65777 | -83.43559 | 28090 ft | 451 kts | 196° |
| 2026-04-24 15:02 | 41.62801 | -83.44909 | 28603 ft | 454 kts | 200° |
| 2026-04-24 15:03 | 41.60782 | -83.45866 | 28941 ft | 456 kts | 199° |
| 2026-04-24 15:03 | 41.56774 | -83.47651 | 29579 ft | 461 kts | 198° |
| 2026-04-24 15:03 | 41.53702 | -83.48965 | 30049 ft | 465 kts | 198° |
| 2026-04-24 15:03 | 41.50624 | -83.50336 | 30508 ft | 468 kts | 199° |
| 2026-04-24 15:04 | 41.47537 | -83.51766 | 30958 ft | 472 kts | 199° |
| 2026-04-24 15:04 | 41.44439 | -83.53192 | 31610 ft | 469 kts | 199° |
| 2026-04-24 15:04 | 41.41350 | -83.54568 | 32273 ft | 467 kts | 198° |
| 2026-04-24 15:04 | 41.38306 | -83.55906 | 32871 ft | 466 kts | 198° |
| 2026-04-24 15:05 | 41.35232 | -83.57278 | 33484 ft | 465 kts | 199° |
| 2026-04-24 15:05 | 41.32170 | -83.58669 | 34091 ft | 464 kts | 199° |
| 2026-04-24 15:05 | 41.29121 | -83.60049 | 34693 ft | 463 kts | 199° |
| 2026-04-24 15:05 | 41.26073 | -83.61408 | 35283 ft | 462 kts | 199° |
| 2026-04-24 15:06 | 41.23026 | -83.62756 | 35868 ft | 461 kts | 199° |
| 2026-04-24 15:06 | 41.19990 | -83.64111 | 36443 ft | 460 kts | 199° |
| 2026-04-24 15:06 | 41.16966 | -83.65470 | 36976 ft | 459 kts | 199° |
| 2026-04-24 15:06 | 41.13935 | -83.66829 | 37493 ft | 460 kts | 199° |
| 2026-04-24 15:07 | 41.10904 | -83.68176 | 38010 ft | 460 kts | 199° |
| 2026-04-24 15:07 | 41.07868 | -83.69520 | 38521 ft | 460 kts | 199° |
| 2026-04-24 15:07 | 41.04877 | -83.70849 | 39010 ft | 460 kts | 199° |
| 2026-04-24 15:07 | 41.01848 | -83.72200 | 39525 ft | 460 kts | 199° |
| 2026-04-24 15:08 | 40.98814 | -83.73550 | 40018 ft | 460 kts | 199° |
| 2026-04-24 15:08 | 40.95778 | -83.74893 | 40509 ft | 460 kts | 199° |
| 2026-04-24 15:08 | 40.92745 | -83.76232 | 40976 ft | 460 kts | 199° |
| 2026-04-24 15:08 | 40.89708 | -83.77576 | 41442 ft | 460 kts | 199° |
| 2026-04-24 15:09 | 40.86677 | -83.78920 | 41890 ft | 460 kts | 199° |
| 2026-04-24 15:09 | 40.83683 | -83.80243 | 42316 ft | 460 kts | 199° |
| 2026-04-24 15:09 | 40.80642 | -83.81584 | 42734 ft | 460 kts | 199° |
| 2026-04-24 15:09 | 40.77602 | -83.82924 | 43021 ft | 464 kts | 199° |
| 2026-04-24 15:10 | 40.74507 | -83.84291 | 42995 ft | 474 kts | 199° |
| 2026-04-24 15:10 | 40.68130 | -83.87102 | 43012 ft | 492 kts | 199° |
| 2026-04-24 15:11 | 40.61525 | -83.89999 | 43015 ft | 507 kts | 199° |
| 2026-04-24 15:11 | 40.54806 | -83.92947 | 43015 ft | 518 kts | 199° |
| 2026-04-24 15:12 | 40.47926 | -83.95954 | 43011 ft | 523 kts | 198° |
| 2026-04-24 15:12 | 40.37562 | -84.00474 | 43006 ft | 524 kts | 198° |
| 2026-04-24 15:13 | 40.30638 | -84.03465 | 42997 ft | 524 kts | 197° |
| 2026-04-24 15:13 | 40.23497 | -84.04828 | 42997 ft | 524 kts | 182° |
| 2026-04-24 15:14 | 40.16198 | -84.05100 | 43009 ft | 525 kts | 184° |
| 2026-04-24 15:14 | 40.08927 | -84.05938 | 43004 ft | 524 kts | 184° |
| 2026-04-24 15:15 | 40.01639 | -84.06377 | 43008 ft | 524 kts | 182° |
| 2026-04-24 15:15 | 39.94409 | -84.06958 | 43005 ft | 524 kts | 185° |
| 2026-04-24 15:16 | 39.87138 | -84.07574 | 43003 ft | 524 kts | 183° |
| 2026-04-24 15:16 | 39.79855 | -84.08067 | 43004 ft | 524 kts | 184° |
| 2026-04-24 15:17 | 39.72578 | -84.08693 | 43006 ft | 524 kts | 184° |
| 2026-04-24 15:17 | 39.65344 | -84.09215 | 43009 ft | 524 kts | 183° |
| 2026-04-24 15:18 | 39.58071 | -84.09786 | 43009 ft | 524 kts | 184° |
| 2026-04-24 15:18 | 39.50789 | -84.10356 | 43008 ft | 524 kts | 183° |
| 2026-04-24 15:19 | 39.43515 | -84.10894 | 43006 ft | 524 kts | 184° |
| 2026-04-24 15:19 | 39.36235 | -84.11473 | 43005 ft | 524 kts | 184° |
| 2026-04-24 15:20 | 39.29013 | -84.12011 | 43005 ft | 524 kts | 183° |
| 2026-04-24 15:20 | 39.21732 | -84.12571 | 43007 ft | 524 kts | 184° |
| 2026-04-24 15:21 | 39.14456 | -84.13130 | 43009 ft | 524 kts | 184° |
| 2026-04-24 15:21 | 39.07180 | -84.13672 | 43011 ft | 524 kts | 184° |
| 2026-04-24 15:22 | 38.99953 | -84.14231 | 43008 ft | 524 kts | 184° |
| 2026-04-24 15:23 | 38.89033 | -84.14436 | 42995 ft | 524 kts | 176° |
| 2026-04-24 15:23 | 38.78138 | -84.13183 | 43010 ft | 523 kts | 177° |
| 2026-04-24 15:25 | 38.61229 | -84.11676 | 43008 ft | 524 kts | 176° |
| 2026-04-24 15:26 | 38.41822 | -84.09944 | 43007 ft | 524 kts | 176° |
| 2026-04-24 15:27 | 38.20042 | -84.08003 | 43006 ft | 524 kts | 176° |
| 2026-04-24 15:29 | 37.98254 | -84.06054 | 43003 ft | 524 kts | 176° |
| 2026-04-24 15:31 | 37.74025 | -84.03884 | 43007 ft | 524 kts | 176° |
| 2026-04-24 15:33 | 37.43774 | -84.01212 | 43008 ft | 525 kts | 176° |
| 2026-04-24 15:34 | 37.25557 | -83.99609 | 43007 ft | 525 kts | 176° |
| 2026-04-24 15:35 | 37.07386 | -83.98019 | 43007 ft | 525 kts | 176° |
| 2026-04-24 15:36 | 37.00101 | -83.97381 | 43007 ft | 525 kts | 176° |
| 2026-04-24 15:36 | 36.89168 | -83.96432 | 43007 ft | 525 kts | 176° |
| 2026-04-24 15:37 | 36.81881 | -83.95798 | 43008 ft | 525 kts | 176° |
| 2026-04-24 15:37 | 36.74649 | -83.95168 | 43007 ft | 525 kts | 176° |
| 2026-04-24 15:38 | 36.67358 | -83.94544 | 43007 ft | 525 kts | 176° |
| 2026-04-24 15:38 | 36.60060 | -83.93908 | 43007 ft | 526 kts | 176° |
| 2026-04-24 15:39 | 36.52764 | -83.93283 | 43008 ft | 525 kts | 176° |
| 2026-04-24 15:39 | 36.45453 | -83.92656 | 43008 ft | 527 kts | 176° |
| 2026-04-24 15:40 | 36.38217 | -83.92030 | 43010 ft | 525 kts | 176° |
| 2026-04-24 15:40 | 36.30923 | -83.91411 | 43006 ft | 525 kts | 176° |
| 2026-04-24 15:41 | 36.23638 | -83.90785 | 43005 ft | 525 kts | 176° |
| 2026-04-24 15:41 | 36.16355 | -83.90163 | 43004 ft | 524 kts | 176° |
| 2026-04-24 15:42 | 36.09117 | -83.89551 | 43000 ft | 524 kts | 176° |
| 2026-04-24 15:42 | 36.01836 | -83.88926 | 42999 ft | 524 kts | 176° |
| 2026-04-24 15:43 | 35.94557 | -83.88313 | 43000 ft | 524 kts | 176° |
| 2026-04-24 15:43 | 35.87278 | -83.87695 | 43004 ft | 524 kts | 176° |
| 2026-04-24 15:44 | 35.79996 | -83.87077 | 43004 ft | 524 kts | 176° |
| 2026-04-24 15:44 | 35.72762 | -83.86472 | 43008 ft | 524 kts | 176° |
| 2026-04-24 15:45 | 35.65475 | -83.85853 | 43007 ft | 525 kts | 176° |
| 2026-04-24 15:45 | 35.58163 | -83.85240 | 43009 ft | 526 kts | 176° |
| 2026-04-24 15:46 | 35.50836 | -83.84627 | 43007 ft | 530 kts | 176° |
| 2026-04-24 15:46 | 35.43569 | -83.84013 | 43008 ft | 524 kts | 176° |
| 2026-04-24 15:47 | 35.36266 | -83.83408 | 43006 ft | 527 kts | 176° |
| 2026-04-24 15:47 | 35.28961 | -83.82795 | 43007 ft | 528 kts | 176° |
| 2026-04-24 15:48 | 35.21623 | -83.82183 | 43010 ft | 526 kts | 176° |
| 2026-04-24 15:48 | 35.14316 | -83.81580 | 43005 ft | 528 kts | 176° |
| 2026-04-24 15:49 | 35.07031 | -83.80969 | 43007 ft | 525 kts | 176° |
| 2026-04-24 15:49 | 34.99727 | -83.80368 | 43006 ft | 527 kts | 176° |
| 2026-04-24 15:50 | 34.92416 | -83.79763 | 43009 ft | 528 kts | 176° |
| 2026-04-24 15:50 | 34.85062 | -83.79152 | 43004 ft | 530 kts | 176° |
| 2026-04-24 15:51 | 34.77719 | -83.78553 | 43009 ft | 527 kts | 176° |
| 2026-04-24 15:51 | 34.70450 | -83.77949 | 43010 ft | 528 kts | 176° |
| 2026-04-24 15:52 | 34.63142 | -83.77352 | 43007 ft | 526 kts | 176° |
| 2026-04-24 15:52 | 34.57015 | -83.76851 | 43006 ft | 523 kts | 176° |
| 2026-04-24 15:53 | 34.51003 | -83.76354 | 42995 ft | 525 kts | 176° |
| 2026-04-24 15:53 | 34.43716 | -83.75762 | 42995 ft | 525 kts | 176° |
| 2026-04-24 15:54 | 34.35249 | -83.75070 | 42997 ft | 525 kts | 176° |
| 2026-04-24 15:54 | 34.29196 | -83.74574 | 42999 ft | 524 kts | 176° |